createdAt,value
2019-04-30T00:04:29.850Z,11.90
2019-04-30T00:09:39.510Z,11.90
2019-04-30T00:14:55.761Z,12.47
2019-04-30T00:20:11.238Z,13.53
2019-04-30T00:25:24.879Z,12.43
2019-04-30T00:30:34.697Z,13.37
2019-04-30T00:35:49.694Z,14.60
2019-04-30T00:41:06.845Z,16.05
2019-04-30T00:46:24.910Z,13.97
2019-04-30T00:51:35.524Z,14.03
2019-04-30T00:56:42.496Z,15.93
2019-04-30T01:02:27.853Z,16.32
2019-04-30T01:07:31.615Z,16.90
2019-04-30T01:12:50.213Z,15.40
2019-04-30T01:18:05.171Z,14.57
2019-04-30T01:23:23.324Z,16.33
2019-04-30T01:28:35.059Z,15.80
2019-04-30T01:33:48.903Z,16.97
2019-04-30T01:39:01.598Z,17.70
2019-04-30T01:44:13.919Z,17.23
2019-04-30T01:49:28.911Z,17.33
2019-04-30T01:54:39.129Z,18.07
2019-04-30T02:00:09.653Z,17.20
2019-04-30T02:05:18.927Z,16.73
2019-04-30T02:10:29.329Z,16.03
2019-04-30T02:15:41.188Z,19.77
2019-04-30T02:20:53.854Z,19.17
2019-04-30T02:26:04.937Z,20.40
2019-04-30T02:31:22.304Z,19.53
2019-04-30T02:36:53.149Z,17.67
2019-04-30T02:42:03.644Z,20.33
2019-04-30T02:47:23.552Z,18.50
2019-04-30T02:52:43.236Z,19.83
2019-04-30T02:57:55.887Z,20.40
2019-04-30T03:03:06.595Z,19.07
2019-04-30T03:08:15.915Z,21.00
2019-04-30T03:13:51.459Z,22.77
2019-04-30T03:19:11.495Z,20.17
2019-04-30T03:24:49.840Z,24.53
2019-04-30T03:30:02.026Z,25.37
2019-04-30T03:35:14.957Z,19.80
2019-04-30T03:40:52.691Z,23.70
2019-04-30T03:46:14.829Z,19.00
2019-04-30T03:51:29.846Z,21.90
2019-04-30T03:56:41.933Z,21.80
2019-04-30T04:02:12.247Z,22.43
2019-04-30T04:07:40.082Z,23.00
2019-04-30T04:13:04.099Z,22.00
2019-04-30T04:18:20.200Z,20.90
2019-04-30T04:23:34.850Z,18.57
2019-04-30T04:28:49.603Z,19.13
2019-04-30T04:34:03.211Z,20.17
2019-04-30T04:39:20.335Z,19.40
2019-04-30T04:44:35.339Z,17.27
2019-04-30T04:49:53.747Z,19.67
2019-04-30T04:55:05.269Z,21.53
2019-04-30T05:00:22.133Z,20.33
2019-04-30T05:05:36.750Z,20.07
2019-04-30T05:11:12.256Z,24.53
2019-04-30T05:16:29.666Z,22.00
2019-04-30T05:21:51.474Z,21.13
2019-04-30T05:27:04.225Z,22.50
2019-04-30T05:32:16.557Z,20.43
2019-04-30T05:38:09.296Z,21.60
2019-04-30T05:43:24.585Z,19.27
2019-04-30T05:48:39.593Z,19.47
2019-04-30T05:53:59.108Z,20.80
2019-04-30T05:59:29.114Z,19.00
2019-04-30T06:04:39.627Z,23.17
2019-04-30T06:09:59.717Z,19.80
2019-04-30T06:15:39.077Z,21.20
2019-04-30T06:20:51.504Z,22.60
2019-04-30T06:26:09.579Z,20.47
2019-04-30T06:31:26.083Z,18.67
2019-04-30T06:36:34.284Z,19.57
2019-04-30T06:41:45.972Z,18.43
2019-04-30T06:47:02.605Z,19.50
2019-04-30T06:52:23.030Z,22.13
2019-04-30T06:57:38.292Z,19.97
2019-04-30T07:02:49.273Z,22.00
2019-04-30T07:08:18.977Z,20.30
2019-04-30T07:13:32.223Z,22.47
2019-04-30T07:18:48.932Z,24.13
2019-04-30T07:24:02.877Z,23.60
2019-04-30T07:29:15.510Z,22.60
2019-04-30T07:34:31.696Z,25.57
2019-04-30T07:39:46.467Z,23.13
2019-04-30T07:45:00.709Z,24.43
2019-04-30T07:50:13.219Z,27.00
2019-04-30T07:55:29.349Z,27.82
2019-04-30T08:00:45.488Z,24.40
2019-04-30T08:05:59.919Z,27.43
2019-04-30T08:11:23.058Z,26.77
2019-04-30T08:16:32.225Z,26.03
2019-04-30T08:21:48.712Z,25.77
2019-04-30T08:27:06.554Z,23.43
2019-04-30T08:32:20.107Z,25.90
2019-04-30T08:37:32.300Z,29.03
2019-04-30T08:42:45.604Z,25.97
2019-04-30T08:48:00.900Z,27.63
2019-04-30T08:53:25.984Z,32.13
2019-04-30T08:58:45.024Z,24.80
2019-04-30T09:04:02.968Z,23.73
2019-04-30T09:09:20.915Z,26.47
2019-04-30T09:14:33.936Z,29.00
2019-04-30T09:19:50.003Z,30.00
2019-04-30T09:25:19.602Z,32.33
2019-04-30T09:30:36.015Z,29.83
2019-04-30T09:36:09.328Z,28.73
2019-04-30T09:41:29.343Z,27.23
2019-04-30T09:46:41.788Z,27.07
2019-04-30T09:51:59.447Z,30.20
2019-04-30T09:57:19.147Z,29.87
2019-04-30T10:02:40.215Z,25.77
2019-04-30T10:07:59.395Z,26.63
2019-04-30T10:13:13.759Z,29.67
2019-04-30T10:18:23.973Z,23.80
2019-04-30T10:23:39.096Z,22.77
2019-04-30T10:29:00.188Z,21.67
2019-04-30T10:34:15.838Z,21.10
2019-04-30T10:39:44.864Z,20.83
2019-04-30T10:45:00.325Z,20.17
2019-04-30T10:50:18.022Z,22.20
2019-04-30T10:55:35.698Z,19.87
2019-04-30T11:00:51.494Z,18.23
2019-04-30T11:06:08.689Z,18.33
2019-04-30T11:11:24.972Z,18.63
2019-04-30T11:16:41.989Z,18.57
2019-04-30T11:22:00.215Z,20.20
2019-04-30T11:27:20.279Z,18.87
2019-04-30T11:32:53.310Z,20.63
2019-04-30T11:38:07.254Z,21.13
2019-04-30T11:43:22.129Z,19.67
2019-04-30T11:48:46.243Z,20.27
2019-04-30T11:54:20.478Z,19.57
2019-04-30T11:59:39.626Z,19.83
2019-04-30T12:04:59.919Z,19.30
2019-04-30T12:17:04.483Z,18.93
2019-04-30T12:22:36.110Z,18.83
2019-04-30T12:27:49.641Z,16.87
2019-04-30T12:33:10.735Z,17.37
2019-04-30T12:38:26.185Z,17.13
2019-04-30T12:43:46.745Z,17.77
2019-04-30T12:49:18.867Z,15.97
2019-04-30T13:00:19.668Z,13.97
2019-04-30T13:05:40.191Z,18.37
2019-04-30T13:10:56.632Z,17.90
2019-04-30T13:16:13.125Z,17.57
2019-04-30T13:21:32.231Z,15.77
2019-04-30T13:27:24.340Z,16.03
2019-04-30T13:33:10.867Z,17.03
2019-04-30T13:38:47.529Z,17.07
2019-04-30T13:44:16.657Z,16.07
2019-04-30T13:50:04.073Z,17.87
2019-04-30T13:55:20.255Z,16.83
2019-04-30T14:00:37.118Z,17.57
2019-04-30T14:05:51.598Z,17.53
2019-04-30T14:11:24.033Z,18.73
2019-04-30T14:16:33.628Z,18.53
2019-04-30T14:21:49.423Z,17.87
2019-04-30T14:26:59.717Z,16.63
2019-04-30T14:32:11.157Z,16.67
2019-04-30T14:37:25.487Z,18.00
2019-04-30T14:43:30.032Z,16.83
2019-04-30T14:48:53.503Z,18.23
2019-04-30T14:54:19.996Z,19.77
2019-04-30T15:00:11.277Z,17.70
2019-04-30T15:05:38.546Z,20.47
2019-04-30T15:11:13.685Z,21.67
2019-04-30T15:16:30.277Z,21.40
2019-04-30T15:21:54.940Z,21.73
2019-04-30T15:27:09.314Z,19.57
2019-04-30T15:32:24.450Z,19.83
2019-04-30T15:37:38.586Z,20.20
2019-04-30T15:42:53.390Z,20.03
2019-04-30T15:48:08.569Z,17.57
2019-04-30T15:53:24.701Z,17.57
2019-04-30T15:58:45.468Z,16.30
2019-04-30T16:04:01.013Z,16.37
2019-04-30T16:09:18.268Z,17.43
2019-04-30T16:15:09.867Z,15.80
2019-04-30T16:20:44.986Z,16.23
2019-04-30T16:25:59.999Z,15.57
2019-04-30T16:31:33.331Z,15.03
2019-04-30T16:36:44.940Z,15.10
2019-04-30T16:42:09.165Z,16.27
2019-04-30T16:47:19.874Z,16.30
2019-04-30T16:52:44.953Z,14.03
2019-04-30T16:57:58.565Z,15.60
2019-04-30T17:03:32.671Z,13.67
2019-04-30T17:08:58.318Z,14.63
2019-04-30T17:14:11.177Z,14.13
2019-04-30T17:19:24.132Z,14.03
2019-04-30T17:24:54.841Z,13.47
2019-04-30T17:30:09.320Z,14.53
2019-04-30T17:35:22.791Z,15.30
2019-04-30T17:40:39.053Z,14.20
2019-04-30T17:45:58.521Z,14.37
2019-04-30T17:51:12.249Z,13.73
2019-04-30T17:56:22.958Z,13.80
2019-04-30T18:01:40.069Z,14.20
2019-04-30T18:06:54.465Z,13.90
2019-04-30T18:12:10.477Z,14.00
2019-04-30T18:17:27.757Z,14.33
2019-04-30T18:22:59.513Z,14.10
2019-04-30T18:28:09.277Z,14.03
2019-04-30T18:33:17.791Z,14.17
2019-04-30T18:38:31.232Z,13.77
2019-04-30T18:43:59.718Z,15.10
2019-04-30T18:49:11.076Z,14.37
2019-04-30T18:54:29.104Z,14.27
2019-04-30T18:59:42.194Z,14.90
2019-04-30T19:05:18.349Z,14.70
2019-04-30T19:16:52.924Z,14.37
2019-04-30T19:22:05.202Z,14.53
2019-04-30T19:27:29.681Z,16.17
2019-04-30T19:32:49.019Z,16.93
2019-04-30T19:38:09.207Z,16.27
2019-04-30T19:43:28.608Z,17.20
2019-04-30T19:48:38.219Z,15.30
2019-04-30T19:53:48.953Z,17.77
2019-04-30T19:59:05.643Z,17.70
2019-04-30T20:04:15.136Z,17.17
2019-04-30T20:09:31.429Z,17.07
2019-04-30T20:14:50.346Z,16.90
2019-04-30T20:20:03.495Z,51.00
2019-04-30T20:25:36.002Z,75.03
2019-04-30T20:30:48.985Z,27.70
2019-04-30T20:36:04.233Z,27.20
2019-04-30T20:46:49.117Z,22.50
2019-04-30T20:52:08.834Z,22.03
2019-04-30T20:57:23.747Z,39.93
2019-04-30T21:02:32.706Z,21.03
2019-04-30T21:07:46.023Z,23.27
2019-04-30T21:13:04.057Z,18.97
2019-04-30T21:18:19.606Z,19.33
2019-04-30T21:24:10.977Z,19.70
2019-04-30T21:29:21.212Z,21.57
2019-04-30T21:34:40.908Z,20.27
2019-04-30T21:39:51.168Z,19.97
2019-04-30T21:45:04.836Z,20.83
2019-04-30T21:50:19.703Z,20.73
2019-04-30T21:55:35.636Z,20.50
2019-04-30T22:01:12.066Z,18.67
2019-04-30T22:06:29.637Z,20.67
2019-04-30T22:11:44.204Z,19.30
2019-04-30T22:16:59.284Z,21.27
2019-04-30T22:22:12.044Z,16.73
2019-04-30T22:27:25.495Z,21.23
2019-04-30T22:32:59.476Z,20.93
2019-04-30T22:38:18.942Z,19.87
2019-04-30T22:43:31.196Z,18.93
2019-04-30T22:48:48.969Z,19.33
2019-04-30T22:54:01.823Z,17.57
2019-04-30T22:59:15.848Z,17.87
2019-04-30T23:04:40.822Z,17.10
2019-04-30T23:09:54.656Z,16.33
2019-04-30T23:15:05.817Z,19.67
2019-04-30T23:25:54.985Z,19.83
2019-04-30T23:31:06.142Z,17.92
2019-04-30T23:36:36.372Z,17.70
2019-04-30T23:41:52.688Z,17.87
2019-04-30T23:47:13.241Z,19.03
2019-04-30T23:52:26.726Z,15.73
2019-04-30T23:57:44.299Z,15.50
